Main page
METAR-TAF:

METAR-TAF

Airports :

Rio Branco International Airport

Rio Branco, Acre, Brazil

latitude: 10-00S, longitude: 067-48W, elevation: 142 m

Current weather observation

The report was made 31 minutes ago, at 05:00 UTC
Wind 1 kt from the West
Temperature 22°C
Humidity 100%
Pressure 1011 hPa
Visibility 10 km or more
no clouds below 1500 m and no cumulonimbus

METAR: SBRB 180500Z 26001KT CAVOK 22/22 Q1011

Time: 00:31 (05:31 UTC)

Forecast

The report was made 8 hours and 31 minutes ago, at 21:00 UTC
Forecast valid from 18 at 00 UTC to 18 at 12 UTC
Wind 5 kt from the North
Visibility 10 km or more
no clouds below 1500 m and no cumulonimbus
Temporary
from 18 at 00 UTC to 18 at 12 UTC
Wind kt from the North

TAF: SBRB 172100Z 1800/1812 36005KT CAVOK TN22/1807Z TX25/1812Z TEMPO 1800/1812 00000KT RMK PHD

Weather observations and forecasts of more than 4000 airports (METAR and TAF reports).

The available stations are represented by yellow and red dots on the map.

Hover mouse over dot to see the name of the station.

Then click to see weather observations and forecasts.

To change the map : click on the green buttons with a black cross to zoom in, on the green button with a dash to zoom out, or on the green arrows for adjacent maps.


METAR-TAF: